Time;durP1;ratioP1;P1;durP2;ratioP2;P2;SDS_P1;SDS_P2;PMS_P1;PMS_P2;Temp;Humidity;BMP_temperature;BMP_pressure;BME280_temperature;BME280_humidity;BME280_pressure;Samples;Min_cycle;Max_cycle;Signal;HPM_P1;HPM_P2
2021/12/22 00:01:24;;;;;;;25.55;10.82;;;-3.40;99.90;;;;;;4936300;29;20102;-77
2021/12/22 00:03:49;;;;;;;25.30;10.70;;;-3.40;99.90;;;;;;4921051;29;20482;-80
2021/12/22 00:06:20;;;;;;;27.25;11.80;;;-3.40;99.90;;;;;;4952713;29;20051;-78
2021/12/22 00:08:46;;;;;;;25.13;11.27;;;-3.50;99.90;;;;;;4951582;29;20608;-77
2021/12/22 00:11:11;;;;;;;27.65;11.65;;;-3.50;99.90;;;;;;4920865;29;20043;-78
2021/12/22 00:13:37;;;;;;;30.98;12.88;;;-3.50;99.90;;;;;;4954964;28;20047;-78
2021/12/22 00:16:03;;;;;;;29.40;12.45;;;-3.50;99.90;;;;;;4920035;28;20051;-78
2021/12/22 00:18:29;;;;;;;25.27;11.70;;;-3.50;99.90;;;;;;4943470;28;20054;-77
2021/12/22 00:20:55;;;;;;;28.77;11.48;;;-3.50;99.90;;;;;;4942970;28;20058;-77
2021/12/22 00:23:21;;;;;;;28.50;12.68;;;-3.50;99.90;;;;;;4959524;28;20058;-79
2021/12/22 00:25:47;;;;;;;28.52;12.10;;;-3.60;99.90;;;;;;4955189;28;20046;-78
2021/12/22 00:28:13;;;;;;;33.90;12.60;;;-3.60;99.90;;;;;;4959437;28;20097;-77
2021/12/22 00:30:39;;;;;;;30.10;12.10;;;-3.60;99.90;;;;;;4959451;28;20038;-77
2021/12/22 00:33:09;;;;;;;29.25;12.32;;;-3.60;99.90;;;;;;4959310;28;20055;-77
2021/12/22 00:35:40;;;;;;;32.85;12.23;;;-3.60;99.90;;;;;;4951619;29;20047;-79
2021/12/22 00:38:09;;;;;;;42.38;11.88;;;-3.60;99.90;;;;;;4923500;29;20059;-78
2021/12/22 00:40:35;;;;;;;31.00;11.95;;;-3.60;99.90;;;;;;4939721;29;20477;-78
2021/12/22 00:43:01;;;;;;;29.08;12.07;;;-3.70;99.90;;;;;;4940096;29;20059;-79
2021/12/22 00:45:28;;;;;;;27.92;11.38;;;-3.70;99.90;;;;;;4940096;29;20066;-78
2021/12/22 00:47:55;;;;;;;32.03;12.95;;;-3.70;99.90;;;;;;4939411;29;20512;-78
2021/12/22 00:50:22;;;;;;;29.27;11.70;;;-3.70;99.90;;;;;;4940347;29;20048;-78
2021/12/22 00:52:48;;;;;;;24.50;10.93;;;-3.70;99.90;;;;;;4923417;29;20051;-78
2021/12/22 00:55:18;;;;;;;30.55;12.90;;;-3.70;99.90;;;;;;4941205;28;20047;-78
2021/12/22 00:57:44;;;;;;;28.90;11.32;;;-3.70;99.90;;;;;;4943107;28;20062;-77
2021/12/22 01:00:11;;;;;;;28.77;12.32;;;-3.70;99.90;;;;;;4959450;28;20057;-79
2021/12/22 01:02:36;;;;;;;27.33;12.10;;;-3.80;99.90;;;;;;4942765;28;20132;-79
2021/12/22 01:05:03;;;;;;;29.00;12.13;;;-3.80;99.90;;;;;;4943270;28;20090;-78
2021/12/22 01:07:29;;;;;;;25.38;11.68;;;-3.80;99.90;;;;;;4959074;28;20090;-77
2021/12/22 01:09:55;;;;;;;29.27;12.27;;;-3.80;99.90;;;;;;4958326;28;20047;-77
2021/12/22 01:12:21;;;;;;;26.80;11.70;;;-3.80;99.90;;;;;;4955333;29;20043;-77
2021/12/22 01:14:46;;;;;;;22.48;11.15;;;-3.80;99.90;;;;;;4925021;28;20039;-78
2021/12/22 01:17:14;;;;;;;26.95;11.85;;;-3.80;99.90;;;;;;4943064;28;20047;-77
2021/12/22 01:19:51;;;;;;;25.77;11.23;;;-3.90;99.90;;;;;;4939270;29;20077;-79
2021/12/22 01:23:01;;;;;;;25.90;10.43;;;-3.80;99.90;;;;;;4939626;29;20047;-78
2021/12/22 01:25:12;;;;;;;24.92;11.52;;;-3.90;99.90;;;;;;4938335;29;20063;-78
2021/12/22 01:27:41;;;;;;;26.02;10.63;;;-3.90;99.90;;;;;;4923845;29;20043;-78
2021/12/22 01:30:19;;;;;;;26.08;11.43;;;-3.90;99.90;;;;;;4939862;29;20110;-78
2021/12/22 01:32:46;;;;;;;25.45;9.98;;;-3.90;99.90;;;;;;4923388;29;20051;-78
2021/12/22 01:35:15;;;;;;;29.60;12.65;;;-4.00;99.90;;;;;;4939809;29;20058;-79
2021/12/22 01:37:41;;;;;;;25.75;12.00;;;-3.90;99.90;;;;;;4938826;29;20052;-79
2021/12/22 01:40:10;;;;;;;22.23;10.70;;;-4.00;99.90;;;;;;4923699;29;20073;-79
2021/12/22 01:42:36;;;;;;;27.27;11.23;;;-4.00;99.90;;;;;;4944837;28;20054;-85
2021/12/22 01:50:41;;;;;;;22.85;11.15;;;-4.00;99.90;;;;;;4958285;28;20512;-78
2021/12/22 01:53:22;;;;;;;26.75;12.13;;;-4.10;99.90;;;;;;4958213;28;20051;-78
2021/12/22 01:56:21;;;;;;;23.88;11.50;;;-4.10;99.90;;;;;;4958359;28;20058;-78
2021/12/22 01:58:49;;;;;;;26.65;11.40;;;-4.10;99.90;;;;;;4942253;28;20105;-78
2021/12/22 02:01:15;;;;;;;23.15;10.65;;;-4.10;99.90;;;;;;4938960;29;20043;-78
2021/12/22 02:03:42;;;;;;;24.60;11.45;;;-4.10;99.90;;;;;;4937951;29;20054;-80
2021/12/22 02:06:09;;;;;;;23.83;11.20;;;-4.10;99.90;;;;;;4954464;29;20047;-79
2021/12/22 02:08:39;;;;;;;29.35;11.02;;;-4.10;99.90;;;;;;4938378;29;20584;-78
2021/12/22 02:11:06;;;;;;;24.00;10.85;;;-3.80;99.90;;;;;;4938837;29;20098;-79
2021/12/22 02:13:37;;;;;;;25.95;11.30;;;-4.10;99.90;;;;;;4922998;29;20055;-79
2021/12/22 02:16:12;;;;;;;25.88;11.85;;;-4.10;99.90;;;;;;4952528;28;20061;-78
2021/12/22 02:18:46;;;;;;;23.98;11.57;;;-4.10;99.90;;;;;;4941619;28;20059;-84
2021/12/22 02:21:12;;;;;;;24.20;11.15;;;-4.10;99.90;;;;;;4956033;28;20066;-79
2021/12/22 02:23:39;;;;;;;23.90;11.05;;;-4.10;99.90;;;;;;4955405;28;20059;-85
2021/12/22 02:26:18;;;;;;;23.05;10.07;;;-4.10;99.90;;;;;;4956074;28;20138;-79
2021/12/22 02:28:48;;;;;;;22.50;11.20;;;-4.10;99.90;;;;;;4936242;29;20098;-79
2021/12/22 02:31:18;;;;;;;22.55;10.25;;;-4.20;99.90;;;;;;4937938;29;20083;-80
2021/12/22 02:33:47;;;;;;;23.13;9.98;;;-4.10;99.90;;;;;;4948795;28;20082;-80
2021/12/22 02:38:48;;;;;;;20.33;10.73;;;-4.20;99.90;;;;;;4939572;28;20145;-78
2021/12/22 02:41:16;;;;;;;26.52;11.48;;;-4.20;99.90;;;;;;4956189;28;20097;-78
2021/12/22 02:43:46;;;;;;;25.42;11.57;;;-4.30;99.90;;;;;;4936898;29;20043;-85
2021/12/22 02:46:13;;;;;;;24.00;10.88;;;-4.20;99.90;;;;;;4937434;29;20094;-80
2021/12/22 02:48:39;;;;;;;23.75;10.90;;;-4.30;99.90;;;;;;4938127;28;20054;-78
2021/12/22 02:51:05;;;;;;;;;;;-4.10;99.90;;;;;;4957165;28;20058;-79
2021/12/22 02:59:10;;;;;;;27.48;11.80;;;-4.30;99.90;;;;;;4955097;28;20138;-78
2021/12/22 03:04:12;;;;;;;26.98;11.20;;;-4.40;99.90;;;;;;4940057;29;20047;-78
2021/12/22 03:07:05;;;;;;;25.17;10.88;;;-4.30;99.90;;;;;;4921749;29;20219;-82
2021/12/22 03:09:33;;;;;;;26.70;11.63;;;-4.40;99.90;;;;;;4936940;29;20122;-79
2021/12/22 03:12:02;;;;;;;31.70;11.85;;;-4.30;99.90;;;;;;4920698;29;20055;-78
2021/12/22 03:14:28;;;;;;;30.08;12.85;;;-4.40;99.90;;;;;;4938487;28;20405;-78
2021/12/22 03:16:54;;;;;;;;;;;-4.40;99.90;;;;;;4940274;28;20054;-79
2021/12/22 03:19:26;;;;;;;30.63;12.00;;;-4.40;99.90;;;;;;4947623;29;20423;-78
2021/12/22 03:21:59;;;;;;;27.13;11.73;;;-4.40;99.90;;;;;;4954851;28;20047;-78
2021/12/22 03:24:25;;;;;;;25.30;11.93;;;-4.40;99.90;;;;;;4955207;28;20047;-78
2021/12/22 03:26:51;;;;;;;;;;;-4.40;99.90;;;;;;4955871;28;20058;-79
2021/12/22 03:29:18;;;;;;;29.27;12.52;;;-4.50;99.90;;;;;;4955649;28;19922;-81
2021/12/22 03:31:45;;;;;;;31.05;12.90;;;-4.50;99.90;;;;;;4939502;28;20120;-83
2021/12/22 03:34:11;;;;;;;30.38;12.23;;;-4.50;99.90;;;;;;4939563;28;20146;-78
2021/12/22 03:36:37;;;;;;;31.95;11.98;;;-4.50;99.90;;;;;;4939405;28;20051;-78
2021/12/22 03:39:04;;;;;;;;;;;-4.50;99.90;;;;;;4938474;28;20586;-79
2021/12/22 03:41:30;;;;;;;28.60;12.07;;;-4.50;99.90;;;;;;4955128;28;19976;-78
2021/12/22 03:43:56;;;;;;;30.83;12.13;;;-4.50;99.90;;;;;;4920252;28;20047;-77
2021/12/22 03:46:21;;;;;;;29.90;13.43;;;-4.50;99.90;;;;;;4952064;28;20393;-78
2021/12/22 03:48:47;;;;;;;23.42;11.18;;;-4.50;99.90;;;;;;4903181;29;20055;-84
2021/12/22 03:51:13;;;;;;;28.50;11.45;;;-4.50;99.90;;;;;;4951712;29;20552;-77
2021/12/22 03:53:38;;;;;;;30.08;12.15;;;-4.50;99.90;;;;;;4918625;29;20563;-78
2021/12/22 03:56:04;;;;;;;29.75;12.75;;;-4.60;99.90;;;;;;4951388;29;20047;-78
2021/12/22 03:58:30;;;;;;;26.92;12.23;;;-4.60;99.90;;;;;;4919676;29;20051;-78
2021/12/22 04:00:56;;;;;;;28.80;11.77;;;-4.50;99.90;;;;;;4935275;29;20085;-77
2021/12/22 04:03:26;;;;;;;;;;;-4.60;99.90;;;;;;4951982;29;20043;-78
2021/12/22 04:05:51;;;;;;;25.67;11.18;;;-4.60;99.90;;;;;;4949931;28;20670;-78
2021/12/22 04:08:18;;;;;;;26.90;12.27;;;-4.60;99.90;;;;;;4937400;28;20133;-78
2021/12/22 04:10:46;;;;;;;24.20;10.77;;;-4.60;99.90;;;;;;4938854;28;20519;-77
2021/12/22 04:13:12;;;;;;;24.00;10.48;;;-4.60;99.90;;;;;;4953750;28;20057;-78
2021/12/22 04:15:39;;;;;;;24.75;11.57;;;-4.60;99.90;;;;;;4954444;28;20404;-78
2021/12/22 04:18:04;;;;;;;24.98;11.20;;;-4.60;99.90;;;;;;4953826;28;20809;-77
2021/12/22 04:20:30;;;;;;;22.95;11.27;;;-4.60;99.90;;;;;;4934866;29;20091;-78
2021/12/22 04:22:56;;;;;;;26.77;11.02;;;-4.60;99.90;;;;;;4933063;29;20056;-77
2021/12/22 04:25:22;;;;;;;;;;;-4.60;99.90;;;;;;4927647;28;20042;-77
2021/12/22 04:27:50;;;;;;;26.63;11.25;;;-4.60;99.90;;;;;;4953966;28;19922;-77
2021/12/22 04:30:16;;;;;;;23.77;10.43;;;-4.70;99.90;;;;;;4938689;28;20055;-77
2021/12/22 04:32:42;;;;;;;24.40;10.85;;;-4.60;99.90;;;;;;4938042;28;20097;-78
2021/12/22 04:37:43;;;;;;;21.98;10.27;;;-4.70;99.90;;;;;;5867376;23;19971;-77
2021/12/22 04:40:09;;;;;;;;;;;-3.40;99.90;;;;;;5011940;28;20375;-77
2021/12/22 04:42:35;;;;;;;22.65;10.02;;;-4.70;99.90;;;;;;4994973;28;19932;-78
2021/12/22 04:45:04;;;;;;;25.05;12.18;;;-4.60;99.90;;;;;;5012623;28;20397;-77
2021/12/22 04:47:31;;;;;;;26.60;11.63;;;-4.70;99.90;;;;;;5010590;28;20089;-78
2021/12/22 04:49:57;;;;;;;26.63;11.48;;;-4.70;99.90;;;;;;5015701;28;20053;-77
2021/12/22 04:52:25;;;;;;;26.13;11.43;;;-4.70;99.90;;;;;;5027763;28;20123;-77
2021/12/22 04:55:03;;;;;;;22.95;10.43;;;-4.70;99.90;;;;;;5011537;28;20108;-78
2021/12/22 04:57:32;;;;;;;23.08;10.15;;;-4.70;99.90;;;;;;5018907;28;20053;-77
2021/12/22 04:59:58;;;;;;;24.95;11.38;;;-4.70;99.90;;;;;;5001210;28;20049;-78
2021/12/22 05:02:24;;;;;;;24.38;10.80;;;-4.70;99.90;;;;;;5014730;28;20053;-77
2021/12/22 05:04:50;;;;;;;26.38;11.60;;;-4.70;99.90;;;;;;4992854;28;20049;-77
2021/12/22 05:07:15;;;;;;;22.20;10.45;;;-4.70;99.90;;;;;;5018553;28;20044;-77
2021/12/22 05:09:41;;;;;;;23.38;10.82;;;-4.70;99.90;;;;;;5001308;28;20041;-78
2021/12/22 05:12:07;;;;;;;26.75;10.25;;;-4.70;99.90;;;;;;5035335;28;20151;-78
2021/12/22 05:14:33;;;;;;;23.95;10.77;;;-4.70;99.90;;;;;;5034735;28;20394;-78
2021/12/22 05:17:02;;;;;;;25.67;11.10;;;-4.70;99.90;;;;;;5051244;28;20049;-77
2021/12/22 05:19:28;;;;;;;25.75;10.88;;;-4.80;99.90;;;;;;5015041;28;20052;-78
2021/12/22 05:21:54;;;;;;;23.23;10.57;;;-4.70;99.90;;;;;;5033440;28;20041;-78
2021/12/22 05:24:20;;;;;;;;;;;-4.70;99.90;;;;;;5007291;28;20049;-79
2021/12/22 05:26:46;;;;;;;26.13;11.90;;;-4.70;99.90;;;;;;5015187;28;19925;-80
2021/12/22 05:29:14;;;;;;;25.55;11.25;;;-4.70;99.90;;;;;;5015321;28;20045;-79
2021/12/22 05:31:40;;;;;;;28.27;11.40;;;-4.70;99.90;;;;;;4998324;28;20045;-79
2021/12/22 05:34:06;;;;;;;29.27;11.40;;;-4.70;99.90;;;;;;5015852;28;20052;-81
2021/12/22 05:36:32;;;;;;;27.00;11.68;;;-4.70;99.90;;;;;;5034685;28;20056;-79
2021/12/22 05:38:58;;;;;;;25.23;11.43;;;-4.70;99.90;;;;;;5019279;28;20054;-81
2021/12/22 05:41:24;;;;;;;26.60;10.85;;;-4.80;99.90;;;;;;5011639;28;20060;-78
2021/12/22 05:43:49;;;;;;;25.52;10.18;;;-4.80;99.90;;;;;;4994978;28;20049;-80
2021/12/22 05:46:16;;;;;;;24.85;10.77;;;-4.70;99.90;;;;;;5022413;28;20884;-79
2021/12/22 05:48:44;;;;;;;23.23;9.85;;;-4.70;99.90;;;;;;4995043;28;20133;-80
2021/12/22 05:51:10;;;;;;;26.00;11.57;;;-4.70;99.90;;;;;;5011950;28;20125;-80
2021/12/22 05:53:36;;;;;;;28.05;11.38;;;-4.70;99.90;;;;;;4977560;28;20132;-79
2021/12/22 05:56:02;;;;;;;;;;;-4.70;99.90;;;;;;5012309;28;20538;-79
2021/12/22 05:58:28;;;;;;;28.15;10.85;;;-4.70;99.90;;;;;;5011278;28;19922;-85
2021/12/22 06:00:54;;;;;;;23.88;11.27;;;-4.70;99.90;;;;;;4978643;28;20477;-78
2021/12/22 06:03:19;;;;;;;24.73;11.02;;;-3.70;99.90;;;;;;5017320;28;20048;-79
2021/12/22 06:05:45;;;;;;;26.42;10.80;;;-4.70;99.90;;;;;;5011355;28;20050;-79
2021/12/22 06:08:11;;;;;;;26.67;10.98;;;-4.70;99.90;;;;;;4978170;28;20414;-79
2021/12/22 06:10:37;;;;;;;26.00;10.93;;;-4.70;99.90;;;;;;5007198;28;20064;-81
2021/12/22 06:13:05;;;;;;;26.25;10.02;;;-4.70;99.90;;;;;;5014464;28;20836;-79
2021/12/22 06:15:31;;;;;;;22.77;10.02;;;-4.70;99.90;;;;;;5014626;28;20054;-85
2021/12/22 06:17:58;;;;;;;;;;;-4.80;99.90;;;;;;5012304;28;20239;-79
2021/12/22 06:20:24;;;;;;;31.80;11.02;;;-4.70;99.90;;;;;;5011402;28;20389;-80
2021/12/22 06:22:50;;;;;;;;;;;-4.80;99.90;;;;;;4993704;28;20093;-79
2021/12/22 06:25:17;;;;;;;25.52;10.82;;;-4.80;99.90;;;;;;5011631;28;19968;-81
2021/12/22 06:27:42;;;;;;;27.63;10.57;;;-4.80;99.90;;;;;;4994616;28;20140;-80
2021/12/22 06:30:09;;;;;;;29.15;11.85;;;-4.70;99.90;;;;;;4994866;28;20188;-81
2021/12/22 06:32:35;;;;;;;26.65;10.85;;;-4.70;99.90;;;;;;5010645;28;20505;-80
2021/12/22 06:35:00;;;;;;;26.70;11.20;;;-4.70;99.90;;;;;;5011386;28;20046;-79
2021/12/22 06:37:26;;;;;;;25.52;11.48;;;-4.70;99.90;;;;;;4990874;28;20509;-79
2021/12/22 06:39:52;;;;;;;23.38;10.95;;;-4.70;99.90;;;;;;5016681;28;20084;-80
2021/12/22 06:42:17;;;;;;;23.70;10.43;;;-4.80;99.90;;;;;;5017243;28;20053;-81
2021/12/22 06:44:43;;;;;;;27.10;10.65;;;-4.70;99.90;;;;;;5033677;28;20048;-79
2021/12/22 06:47:10;;;;;;;26.92;10.85;;;-4.70;99.90;;;;;;4997784;28;20054;-79
2021/12/22 06:49:37;;;;;;;28.80;12.10;;;-4.70;99.90;;;;;;5020523;28;20053;-84
2021/12/22 06:52:04;;;;;;;31.30;11.15;;;-4.70;99.90;;;;;;5013854;28;20076;-80
2021/12/22 06:54:30;;;;;;;21.98;10.45;;;-4.70;99.90;;;;;;4980999;28;20120;-81
2021/12/22 06:56:55;;;;;;;25.70;10.48;;;-3.40;99.90;;;;;;5020964;28;20128;-81
2021/12/22 06:59:21;;;;;;;25.27;11.07;;;-4.70;99.90;;;;;;4997948;28;20046;-80
2021/12/22 07:01:48;;;;;;;27.10;10.93;;;-4.70;99.90;;;;;;4997979;28;20466;-81
2021/12/22 07:04:14;;;;;;;27.25;10.75;;;-4.70;99.90;;;;;;4998200;28;20048;-80
2021/12/22 07:06:39;;;;;;;;;;;-4.60;99.90;;;;;;4998535;28;20057;-82
2021/12/22 07:09:07;;;;;;;24.90;11.50;;;-4.60;99.90;;;;;;5012532;28;19978;-79
2021/12/22 07:11:34;;;;;;;26.48;10.65;;;-4.30;99.90;;;;;;5000253;28;20056;-81
2021/12/22 07:14:01;;;;;;;29.00;12.05;;;-4.70;99.90;;;;;;4998138;28;20180;-82
2021/12/22 07:16:26;;;;;;;24.60;11.13;;;-4.70;99.90;;;;;;4999275;28;20050;-80
2021/12/22 07:18:53;;;;;;;27.67;11.77;;;-4.70;99.90;;;;;;4998671;28;20061;-81
2021/12/22 07:21:19;;;;;;;27.85;11.27;;;-4.70;99.90;;;;;;5015283;28;20095;-81
2021/12/22 07:23:44;;;;;;;28.63;12.48;;;-4.70;99.90;;;;;;5014341;28;20049;-81
2021/12/22 07:26:13;;;;;;;27.77;11.25;;;-4.70;99.90;;;;;;4998756;28;20053;-81
2021/12/22 07:28:48;;;;;;;28.40;11.68;;;-3.50;99.90;;;;;;4999143;28;20128;-86
2021/12/22 07:31:15;;;;;;;29.08;12.02;;;-4.70;99.90;;;;;;5015179;28;20532;-81
2021/12/22 07:33:52;;;;;;;27.33;11.32;;;-4.70;99.90;;;;;;4998350;28;20417;-85
2021/12/22 07:36:18;;;;;;;26.63;12.02;;;-4.70;99.90;;;;;;5031471;28;20046;-80
2021/12/22 07:38:58;;;;;;;29.98;12.20;;;-4.70;99.90;;;;;;4997243;28;20271;-81
2021/12/22 07:41:25;;;;;;;30.90;12.25;;;-4.70;99.90;;;;;;5015120;28;20529;-81
2021/12/22 07:43:50;;;;;;;30.42;12.35;;;-4.80;99.90;;;;;;4998280;28;20060;-81
2021/12/22 07:46:16;;;;;;;31.40;12.60;;;-4.70;99.90;;;;;;5014846;28;20398;-82
2021/12/22 07:48:42;;;;;;;28.35;11.45;;;-4.70;99.90;;;;;;5014436;28;20045;-85
2021/12/22 07:51:08;;;;;;;28.95;11.70;;;-4.70;99.90;;;;;;4998742;28;20053;-81
2021/12/22 07:53:34;;;;;;;32.83;12.75;;;-4.70;99.90;;;;;;5014304;28;20081;-81
2021/12/22 07:56:00;;;;;;;;;;;-4.80;99.90;;;;;;5015175;28;20126;-82
2021/12/22 07:58:27;;;;;;;32.40;12.90;;;-4.80;99.90;;;;;;5005427;28;19921;-81
2021/12/22 08:00:55;;;;;;;29.42;11.95;;;-4.70;99.90;;;;;;5014363;28;20524;-81
2021/12/22 08:03:21;;;;;;;26.35;11.63;;;-4.70;99.90;;;;;;5014428;28;20046;-82
2021/12/22 08:05:47;;;;;;;29.10;11.75;;;-4.70;99.90;;;;;;5014068;28;20132;-82
2021/12/22 08:08:13;;;;;;;28.40;11.20;;;-4.60;99.90;;;;;;5014183;28;20053;-82
2021/12/22 08:10:39;;;;;;;30.50;12.35;;;-4.60;99.90;;;;;;5014951;28;20045;-81
2021/12/22 08:13:05;;;;;;;;;;;-4.60;99.90;;;;;;4997738;28;20196;-81
2021/12/22 08:15:31;;;;;;;30.05;12.13;;;-4.50;99.90;;;;;;5002000;28;20369;-81
2021/12/22 08:17:56;;;;;;;;;;;-4.50;99.90;;;;;;5020441;28;20120;-82
2021/12/22 08:20:23;;;;;;;52.13;13.80;;;-4.50;99.90;;;;;;5005501;28;20425;-81
2021/12/22 08:22:50;;;;;;;40.58;17.15;;;-4.30;99.90;;;;;;5009962;28;20104;-81
2021/12/22 08:25:16;;;;;;;;;;;-4.40;99.90;;;;;;5022936;28;20040;-81
2021/12/22 08:27:42;;;;;;;41.33;15.73;;;-4.40;99.90;;;;;;5019281;28;20369;-81
2021/12/22 08:30:08;;;;;;;34.42;13.65;;;-4.40;99.90;;;;;;4994193;28;20136;-81
2021/12/22 08:32:35;;;;;;;32.38;12.73;;;-4.30;99.90;;;;;;5019069;28;20055;-80
2021/12/22 08:35:04;;;;;;;30.15;12.15;;;-4.30;99.90;;;;;;5009527;28;20058;-82
2021/12/22 08:40:17;;;;;;;28.98;11.70;;;-3.00;99.90;;;;;;5026716;28;20056;-81
2021/12/22 08:42:44;;;;;;;25.88;11.40;;;-4.20;99.90;;;;;;5038860;28;20087;-81
2021/12/22 08:45:12;;;;;;;29.88;12.95;;;-4.10;99.90;;;;;;5021324;28;20045;-81
2021/12/22 08:47:38;;;;;;;27.77;12.20;;;-4.10;99.90;;;;;;5027830;28;20045;-80
2021/12/22 08:50:07;;;;;;;30.00;12.90;;;-4.00;99.90;;;;;;5016521;28;20049;-80
2021/12/22 08:52:32;;;;;;;27.77;11.73;;;-3.90;99.90;;;;;;5019433;28;20089;-76
2021/12/22 08:54:58;;;;;;;26.65;11.77;;;-3.90;99.90;;;;;;5007868;28;20084;-81
2021/12/22 08:57:24;;;;;;;;;;;-3.90;99.90;;;;;;5019606;28;20124;-80
2021/12/22 08:59:50;;;;;;;26.67;10.95;;;-3.80;99.90;;;;;;5001083;28;20008;-82
2021/12/22 09:02:16;;;;;;;27.58;12.07;;;-2.90;99.90;;;;;;5016553;28;20041;-80
2021/12/22 09:04:41;;;;;;;29.23;11.85;;;-3.70;99.90;;;;;;5002416;28;20049;-80
2021/12/22 09:07:07;;;;;;;27.08;11.50;;;-3.70;99.90;;;;;;4984531;28;20266;-80
2021/12/22 09:09:33;;;;;;;31.27;12.77;;;-3.70;99.90;;;;;;5017488;28;20049;-80
2021/12/22 09:11:59;;;;;;;;;;;-3.60;99.90;;;;;;5017393;28;20053;-80
2021/12/22 09:14:25;;;;;;;27.70;11.38;;;-3.60;99.90;;;;;;5001496;28;19975;-80
2021/12/22 09:16:52;;;;;;;25.52;10.93;;;-3.60;99.90;;;;;;5000989;28;20049;-81
2021/12/22 09:19:18;;;;;;;26.25;11.93;;;-3.50;99.90;;;;;;5014469;28;20057;-80
2021/12/22 09:21:45;;;;;;;31.33;13.00;;;-3.50;99.90;;;;;;5020085;28;20037;-81
2021/12/22 09:24:10;;;;;;;29.83;12.85;;;-3.50;99.90;;;;;;5020051;28;20044;-81
2021/12/22 09:26:37;;;;;;;29.48;11.93;;;-3.40;99.90;;;;;;5036912;28;20394;-82
2021/12/22 09:29:05;;;;;;;29.90;12.13;;;-3.40;99.90;;;;;;4999094;28;20514;-80
2021/12/22 09:31:31;;;;;;;34.50;12.88;;;-3.10;99.90;;;;;;5016123;28;20076;-81
2021/12/22 09:33:57;;;;;;;31.80;13.55;;;-3.30;99.90;;;;;;5014378;28;20524;-80
2021/12/22 09:36:23;;;;;;;30.30;12.82;;;-3.30;99.90;;;;;;5015671;28;20053;-80
2021/12/22 09:38:49;;;;;;;;;;;-3.30;99.90;;;;;;5014045;28;20128;-81
2021/12/22 09:41:15;;;;;;;30.27;12.55;;;-2.40;99.90;;;;;;5014843;28;19991;-79
2021/12/22 09:43:42;;;;;;;28.20;12.80;;;-3.30;99.90;;;;;;4998717;28;20474;-80
2021/12/22 09:46:11;;;;;;;29.90;12.80;;;-3.30;99.90;;;;;;5003251;28;20114;-78
2021/12/22 09:48:58;;;;;;;30.55;11.98;;;-3.20;99.90;;;;;;5034640;28;20521;-78
2021/12/22 09:53:53;;;;;;;30.67;12.38;;;-3.10;99.90;;;;;;4996892;28;20482;-83
2021/12/22 09:56:27;;;;;;;31.48;12.40;;;-3.00;99.90;;;;;;5005253;28;20049;-80
2021/12/22 09:58:54;;;;;;;31.95;12.05;;;-2.70;99.90;;;;;;5001920;28;20138;-84
2021/12/22 10:01:23;;;;;;;33.75;12.57;;;-2.90;99.90;;;;;;5010704;28;20049;-80
2021/12/22 10:03:53;;;;;;;39.20;13.02;;;-2.80;99.90;;;;;;5019390;28;20046;-79
2021/12/22 10:06:19;;;;;;;33.83;13.00;;;-2.70;99.90;;;;;;5023159;28;20099;-80
2021/12/22 10:09:01;;;;;;;33.22;13.20;;;-2.70;99.90;;;;;;5008797;28;20053;-80
2021/12/22 10:11:30;;;;;;;30.50;11.98;;;-2.30;99.90;;;;;;5020232;28;20067;-79
2021/12/22 10:13:57;;;;;;;35.25;13.27;;;-2.60;99.90;;;;;;4994870;28;20100;-80
2021/12/22 10:16:23;;;;;;;;;;;-2.50;99.90;;;;;;5028911;28;20048;-80
2021/12/22 10:19:10;;;;;;;34.42;12.73;;;-2.50;99.90;;;;;;5025343;28;19929;-79
2021/12/22 10:21:49;;;;;;;32.47;13.23;;;-2.50;99.90;;;;;;5010287;28;20041;-79
2021/12/22 10:24:15;;;;;;;33.13;13.15;;;-2.50;99.90;;;;;;5021449;28;20041;-81
2021/12/22 10:26:41;;;;;;;35.63;13.45;;;-2.40;99.90;;;;;;5001394;28;20044;-80
2021/12/22 10:29:08;;;;;;;34.05;13.10;;;-2.30;99.90;;;;;;5021967;28;20501;-79
2021/12/22 10:31:36;;;;;;;29.83;11.68;;;-2.20;99.90;;;;;;5021258;28;20053;-80
2021/12/22 10:34:17;;;;;;;34.35;12.20;;;-2.10;99.90;;;;;;5026045;28;20045;-80
2021/12/22 10:36:48;;;;;;;31.90;12.75;;;-2.00;99.90;;;;;;5028609;28;20056;-81
2021/12/22 10:39:40;;;;;;;34.85;13.52;;;-1.90;99.90;;;;;;5033158;28;20061;-81
2021/12/22 10:42:09;;;;;;;35.75;11.90;;;-1.40;99.90;;;;;;5019134;28;20504;-82
2021/12/22 10:44:41;;;;;;;32.05;11.90;;;-1.80;99.90;;;;;;5021960;28;20049;-79
2021/12/22 10:47:22;;;;;;;33.95;12.80;;;-1.70;99.90;;;;;;5020589;28;20045;-79
2021/12/22 10:50:04;;;;;;;32.70;12.57;;;-1.60;99.90;;;;;;5023477;28;20041;-79
2021/12/22 10:52:31;;;;;;;29.55;11.82;;;-1.60;99.90;;;;;;5023509;28;20052;-82
2021/12/22 10:55:34;;;;;;;34.13;13.23;;;-1.50;99.90;;;;;;5016686;28;20076;-84
2021/12/22 10:58:00;;;;;;;29.50;11.93;;;-1.50;99.90;;;;;;4994966;28;20053;-81
2021/12/22 11:00:26;;;;;;;26.90;10.95;;;-0.70;99.90;;;;;;5023942;28;20087;-80
2021/12/22 11:03:10;;;;;;;29.20;11.85;;;-1.40;99.90;;;;;;5012112;28;20051;-79
2021/12/22 11:06:09;;;;;;;30.00;11.55;;;-1.40;99.90;;;;;;5022587;28;20722;-79
2021/12/22 11:08:34;;;;;;;30.48;12.38;;;-1.10;99.90;;;;;;5029889;28;20041;-80
2021/12/22 11:11:12;;;;;;;23.45;10.60;;;-1.30;99.90;;;;;;5024915;28;20056;-85
2021/12/22 11:13:38;;;;;;;31.08;11.00;;;-1.20;99.90;;;;;;5017394;28;20053;-80
2021/12/22 11:16:13;;;;;;;25.73;11.38;;;-1.10;99.90;;;;;;5029726;28;20052;-79
2021/12/22 11:18:40;;;;;;;29.33;10.68;;;-1.00;99.90;;;;;;5015030;28;20123;-80
2021/12/22 11:21:07;;;;;;;24.20;10.65;;;-0.80;99.90;;;;;;5014479;28;20038;-80
2021/12/22 11:23:34;;;;;;;26.67;10.68;;;0.10;99.90;;;;;;4998490;28;20061;-80
2021/12/22 11:26:00;;;;;;;24.33;10.68;;;-0.20;99.90;;;;;;4999199;28;20038;-86
2021/12/22 11:28:26;;;;;;;26.08;10.27;;;0.10;99.90;;;;;;5014881;28;20513;-80
2021/12/22 11:30:52;;;;;;;28.35;11.02;;;0.60;99.90;;;;;;4998701;28;20052;-79
2021/12/22 11:33:18;;;;;;;23.90;9.73;;;0.20;99.90;;;;;;5005804;28;20041;-81
2021/12/22 11:35:43;;;;;;;23.98;10.10;;;0.50;99.90;;;;;;5025157;28;20042;-80
2021/12/22 11:38:10;;;;;;;24.40;10.25;;;0.30;99.90;;;;;;5015853;28;20126;-80
2021/12/22 11:40:37;;;;;;;22.23;9.98;;;0.90;99.90;;;;;;5006746;28;20053;-79
2021/12/22 11:43:02;;;;;;;21.67;9.70;;;0.50;99.90;;;;;;4982151;28;20045;-87
2021/12/22 11:45:31;;;;;;;23.75;10.60;;;0.60;99.90;;;;;;5015377;28;20048;-76
2021/12/22 11:47:58;;;;;;;20.77;9.70;;;0.70;99.90;;;;;;5015072;28;20162;-77
2021/12/22 11:50:35;;;;;;;19.23;9.55;;;0.80;99.90;;;;;;4998439;28;20061;-77
2021/12/22 11:53:08;;;;;;;20.40;9.27;;;0.80;99.90;;;;;;5014565;28;20155;-77
2021/12/22 11:55:44;;;;;;;22.88;10.55;;;0.80;99.90;;;;;;5015386;28;20674;-76
2021/12/22 11:58:20;;;;;;;21.10;10.88;;;0.80;99.90;;;;;;5033798;28;20067;-77
2021/12/22 12:01:11;;;;;;;24.88;10.60;;;0.70;99.90;;;;;;5028796;28;20077;-76
2021/12/22 12:03:46;;;;;;;22.83;11.00;;;1.30;99.90;;;;;;5027499;28;20045;-76
2021/12/22 12:06:16;;;;;;;20.67;9.60;;;0.60;99.90;;;;;;5021470;28;20504;-77
2021/12/22 12:08:50;;;;;;;22.58;10.07;;;1.10;99.90;;;;;;5000339;28;20059;-77
2021/12/22 12:11:23;;;;;;;24.50;10.10;;;0.50;99.90;;;;;;4997874;28;20045;-77
2021/12/22 12:13:54;;;;;;;23.20;10.60;;;0.50;99.90;;;;;;5017364;28;20571;-77
2021/12/22 12:22:22;;;;;;;21.38;9.50;;;1.00;99.90;;;;;;5018410;28;20054;-76
2021/12/22 12:24:56;;;;;;;21.75;10.02;;;1.30;99.90;;;;;;4996967;28;20080;-78
2021/12/22 12:27:50;;;;;;;24.98;9.85;;;2.10;99.90;;;;;;5019841;28;20509;-76
2021/12/22 12:30:21;;;;;;;22.67;10.07;;;1.50;99.90;;;;;;5012391;28;20049;-75
2021/12/22 12:32:48;;;;;;;20.77;10.15;;;1.40;99.90;;;;;;5015874;28;20073;-75
2021/12/22 12:35:23;;;;;;;20.77;10.10;;;1.30;99.90;;;;;;5018165;28;20113;-76
2021/12/22 12:38:07;;;;;;;24.13;10.00;;;1.70;99.90;;;;;;5021177;28;20053;-74
2021/12/22 12:40:54;;;;;;;21.20;9.85;;;1.70;99.90;;;;;;5029864;28;20149;-77
2021/12/22 12:43:58;;;;;;;21.38;9.20;;;2.00;99.90;;;;;;5020295;28;20057;-78
2021/12/22 12:46:29;;;;;;;19.63;9.52;;;2.40;99.90;;;;;;5009012;28;20494;-76
2021/12/22 12:49:04;;;;;;;21.90;9.60;;;2.50;99.90;;;;;;5017450;28;20058;-76
2021/12/22 12:51:55;;;;;;;19.90;9.68;;;2.60;99.90;;;;;;5011700;28;20049;-75
2021/12/22 12:54:25;;;;;;;19.25;9.63;;;2.70;99.90;;;;;;5011032;28;20061;-75
2021/12/22 12:56:54;;;;;;;16.65;8.77;;;3.10;99.90;;;;;;5031412;28;20092;-76
2021/12/22 12:59:26;;;;;;;19.80;9.57;;;2.50;99.90;;;;;;5014154;28;20056;-77
2021/12/22 13:01:52;;;;;;;17.88;9.20;;;2.30;99.90;;;;;;5011802;28;20053;-76
2021/12/22 13:04:32;;;;;;;19.10;8.95;;;2.10;99.90;;;;;;5011288;28;20045;-76
2021/12/22 13:07:01;;;;;;;20.52;9.95;;;1.90;99.90;;;;;;4995305;28;20053;-75
2021/12/22 13:09:31;;;;;;;21.20;9.18;;;1.70;99.90;;;;;;5010606;28;20490;-79
2021/12/22 13:12:18;;;;;;;22.70;9.55;;;1.50;99.90;;;;;;5017018;28;20053;-75
2021/12/22 13:17:34;;;;;;;21.23;9.65;;;1.30;99.90;;;;;;5011688;28;20057;-79